sensor_id;sensor_type;location;lat;lon;timestamp;P1;durP1;ratioP1;P2;durP2;ratioP2
58697;SDS011;44475;53.206;-6.106;2022-12-07T00:01:36;5.95;;;2.38;;
58697;SDS011;44475;53.206;-6.106;2022-12-07T00:04:06;7.70;;;2.50;;
58697;SDS011;44475;53.206;-6.106;2022-12-07T00:06:36;6.32;;;2.67;;
58697;SDS011;44475;53.206;-6.106;2022-12-07T00:09:06;5.22;;;2.38;;
58697;SDS011;44475;53.206;-6.106;2022-12-07T00:11:37;5.95;;;2.40;;
58697;SDS011;44475;53.206;-6.106;2022-12-07T00:14:05;5.43;;;2.50;;
58697;SDS011;44475;53.206;-6.106;2022-12-07T00:16:33;4.32;;;2.30;;
58697;SDS011;44475;53.206;-6.106;2022-12-07T00:19:02;6.13;;;2.40;;
58697;SDS011;44475;53.206;-6.106;2022-12-07T00:21:33;8.50;;;2.38;;
58697;SDS011;44475;53.206;-6.106;2022-12-07T00:24:03;3.85;;;2.30;;
58697;SDS011;44475;53.206;-6.106;2022-12-07T00:26:31;4.22;;;2.20;;
58697;SDS011;44475;53.206;-6.106;2022-12-07T00:29:19;5.13;;;2.40;;
58697;SDS011;44475;53.206;-6.106;2022-12-07T00:31:46;4.70;;;2.30;;
58697;SDS011;44475;53.206;-6.106;2022-12-07T00:34:14;6.18;;;2.30;;
58697;SDS011;44475;53.206;-6.106;2022-12-07T00:36:45;8.00;;;2.40;;
58697;SDS011;44475;53.206;-6.106;2022-12-07T00:39:11;5.30;;;2.60;;
58697;SDS011;44475;53.206;-6.106;2022-12-07T00:41:38;3.85;;;2.22;;
58697;SDS011;44475;53.206;-6.106;2022-12-07T00:44:04;7.18;;;2.40;;
58697;SDS011;44475;53.206;-6.106;2022-12-07T00:46:32;6.40;;;2.40;;
58697;SDS011;44475;53.206;-6.106;2022-12-07T00:48:58;8.70;;;2.65;;
58697;SDS011;44475;53.206;-6.106;2022-12-07T00:51:26;7.28;;;2.40;;
58697;SDS011;44475;53.206;-6.106;2022-12-07T00:53:54;7.60;;;2.85;;
58697;SDS011;44475;53.206;-6.106;2022-12-07T00:56:27;6.35;;;2.50;;
58697;SDS011;44475;53.206;-6.106;2022-12-07T00:58:55;5.45;;;2.50;;
58697;SDS011;44475;53.206;-6.106;2022-12-07T01:01:30;5.28;;;2.40;;
58697;SDS011;44475;53.206;-6.106;2022-12-07T01:04:04;10.48;;;2.38;;
58697;SDS011;44475;53.206;-6.106;2022-12-07T01:06:35;6.70;;;2.78;;
58697;SDS011;44475;53.206;-6.106;2022-12-07T01:09:03;8.73;;;2.72;;
58697;SDS011;44475;53.206;-6.106;2022-12-07T01:11:34;5.03;;;2.33;;
58697;SDS011;44475;53.206;-6.106;2022-12-07T01:14:00;6.95;;;2.35;;
58697;SDS011;44475;53.206;-6.106;2022-12-07T01:16:35;4.68;;;2.40;;
58697;SDS011;44475;53.206;-6.106;2022-12-07T01:19:05;5.20;;;2.33;;
58697;SDS011;44475;53.206;-6.106;2022-12-07T01:21:33;5.15;;;2.22;;
58697;SDS011;44475;53.206;-6.106;2022-12-07T01:24:06;4.68;;;2.40;;
58697;SDS011;44475;53.206;-6.106;2022-12-07T01:26:36;5.47;;;2.20;;
58697;SDS011;44475;53.206;-6.106;2022-12-07T01:29:02;6.93;;;2.28;;
58697;SDS011;44475;53.206;-6.106;2022-12-07T01:31:33;3.90;;;2.25;;
58697;SDS011;44475;53.206;-6.106;2022-12-07T01:34:02;6.38;;;2.45;;
58697;SDS011;44475;53.206;-6.106;2022-12-07T01:36:30;5.10;;;2.10;;
58697;SDS011;44475;53.206;-6.106;2022-12-07T01:39:05;5.90;;;2.10;;
58697;SDS011;44475;53.206;-6.106;2022-12-07T01:41:34;3.65;;;2.08;;
58697;SDS011;44475;53.206;-6.106;2022-12-07T01:44:26;7.82;;;2.13;;
58697;SDS011;44475;53.206;-6.106;2022-12-07T01:49:41;4.68;;;1.95;;
58697;SDS011;44475;53.206;-6.106;2022-12-07T01:52:30;4.72;;;2.10;;
58697;SDS011;44475;53.206;-6.106;2022-12-07T01:55:15;3.53;;;1.90;;
58697;SDS011;44475;53.206;-6.106;2022-12-07T01:57:44;3.85;;;2.00;;
58697;SDS011;44475;53.206;-6.106;2022-12-07T02:00:35;4.25;;;2.15;;
58697;SDS011;44475;53.206;-6.106;2022-12-07T02:03:14;5.38;;;2.00;;
58697;SDS011;44475;53.206;-6.106;2022-12-07T02:06:06;3.90;;;1.98;;
58697;SDS011;44475;53.206;-6.106;2022-12-07T02:08:38;4.32;;;2.08;;
58697;SDS011;44475;53.206;-6.106;2022-12-07T02:11:05;4.00;;;2.00;;
58697;SDS011;44475;53.206;-6.106;2022-12-07T02:13:38;3.85;;;1.88;;
58697;SDS011;44475;53.206;-6.106;2022-12-07T02:24:45;4.80;;;2.00;;
58697;SDS011;44475;53.206;-6.106;2022-12-07T02:27:47;3.33;;;1.83;;
58697;SDS011;44475;53.206;-6.106;2022-12-07T02:30:58;2.85;;;1.77;;
58697;SDS011;44475;53.206;-6.106;2022-12-07T02:33:41;4.70;;;1.90;;
58697;SDS011;44475;53.206;-6.106;2022-12-07T02:36:46;3.40;;;1.85;;
58697;SDS011;44475;53.206;-6.106;2022-12-07T02:42:28;4.07;;;1.85;;
58697;SDS011;44475;53.206;-6.106;2022-12-07T02:45:13;3.17;;;1.95;;
58697;SDS011;44475;53.206;-6.106;2022-12-07T02:47:51;2.95;;;1.80;;
58697;SDS011;44475;53.206;-6.106;2022-12-07T02:50:27;2.50;;;1.80;;
58697;SDS011;44475;53.206;-6.106;2022-12-07T02:52:54;3.38;;;1.90;;
58697;SDS011;44475;53.206;-6.106;2022-12-07T02:55:31;3.03;;;1.80;;
58697;SDS011;44475;53.206;-6.106;2022-12-07T02:58:59;3.30;;;1.80;;
58697;SDS011;44475;53.206;-6.106;2022-12-07T03:07:23;4.00;;;1.92;;
58697;SDS011;44475;53.206;-6.106;2022-12-07T03:10:14;3.83;;;1.75;;
58697;SDS011;44475;53.206;-6.106;2022-12-07T03:13:34;2.35;;;1.80;;
58697;SDS011;44475;53.206;-6.106;2022-12-07T03:18:55;2.97;;;1.80;;
58697;SDS011;44475;53.206;-6.106;2022-12-07T03:22:03;2.90;;;1.80;;
58697;SDS011;44475;53.206;-6.106;2022-12-07T03:27:31;4.00;;;1.88;;
58697;SDS011;44475;53.206;-6.106;2022-12-07T03:30:39;2.10;;;1.60;;
58697;SDS011;44475;53.206;-6.106;2022-12-07T03:33:25;2.67;;;1.70;;
58697;SDS011;44475;53.206;-6.106;2022-12-07T03:36:44;2.70;;;1.70;;
58697;SDS011;44475;53.206;-6.106;2022-12-07T03:39:23;2.35;;;1.70;;
58697;SDS011;44475;53.206;-6.106;2022-12-07T03:42:11;3.03;;;1.67;;
58697;SDS011;44475;53.206;-6.106;2022-12-07T03:44:41;2.55;;;1.60;;
58697;SDS011;44475;53.206;-6.106;2022-12-07T03:47:30;3.22;;;1.70;;
58697;SDS011;44475;53.206;-6.106;2022-12-07T03:50:19;3.75;;;1.80;;
58697;SDS011;44475;53.206;-6.106;2022-12-07T03:53:24;2.67;;;1.70;;
58697;SDS011;44475;53.206;-6.106;2022-12-07T03:56:21;2.38;;;1.60;;
58697;SDS011;44475;53.206;-6.106;2022-12-07T03:58:58;2.85;;;1.60;;
58697;SDS011;44475;53.206;-6.106;2022-12-07T04:01:27;2.00;;;1.60;;
58697;SDS011;44475;53.206;-6.106;2022-12-07T04:03:55;2.05;;;1.60;;
58697;SDS011;44475;53.206;-6.106;2022-12-07T04:06:21;2.88;;;1.60;;
58697;SDS011;44475;53.206;-6.106;2022-12-07T04:08:50;5.78;;;1.52;;
58697;SDS011;44475;53.206;-6.106;2022-12-07T04:11:18;2.50;;;1.65;;
58697;SDS011;44475;53.206;-6.106;2022-12-07T04:13:49;1.95;;;1.50;;
58697;SDS011;44475;53.206;-6.106;2022-12-07T04:16:37;1.80;;;1.50;;
58697;SDS011;44475;53.206;-6.106;2022-12-07T04:19:03;2.17;;;1.50;;
58697;SDS011;44475;53.206;-6.106;2022-12-07T04:21:31;4.43;;;1.80;;
58697;SDS011;44475;53.206;-6.106;2022-12-07T04:23:57;2.60;;;1.60;;
58697;SDS011;44475;53.206;-6.106;2022-12-07T04:26:23;2.05;;;1.58;;
58697;SDS011;44475;53.206;-6.106;2022-12-07T04:28:54;4.28;;;1.70;;
58697;SDS011;44475;53.206;-6.106;2022-12-07T04:31:23;2.42;;;1.48;;
58697;SDS011;44475;53.206;-6.106;2022-12-07T04:33:52;1.83;;;1.50;;
58697;SDS011;44475;53.206;-6.106;2022-12-07T04:36:20;4.15;;;1.60;;
58697;SDS011;44475;53.206;-6.106;2022-12-07T04:38:49;2.78;;;1.70;;
58697;SDS011;44475;53.206;-6.106;2022-12-07T04:41:22;2.08;;;1.40;;
58697;SDS011;44475;53.206;-6.106;2022-12-07T04:43:56;2.83;;;1.70;;
58697;SDS011;44475;53.206;-6.106;2022-12-07T04:46:36;2.75;;;1.60;;
58697;SDS011;44475;53.206;-6.106;2022-12-07T04:49:12;4.28;;;1.80;;
58697;SDS011;44475;53.206;-6.106;2022-12-07T04:51:41;2.65;;;1.50;;
58697;SDS011;44475;53.206;-6.106;2022-12-07T04:54:07;2.00;;;1.60;;
58697;SDS011;44475;53.206;-6.106;2022-12-07T04:56:43;2.10;;;1.60;;
58697;SDS011;44475;53.206;-6.106;2022-12-07T04:59:15;3.08;;;1.60;;
58697;SDS011;44475;53.206;-6.106;2022-12-07T05:01:42;3.23;;;1.70;;
58697;SDS011;44475;53.206;-6.106;2022-12-07T05:04:10;2.95;;;1.60;;
58697;SDS011;44475;53.206;-6.106;2022-12-07T05:06:37;2.55;;;1.50;;
58697;SDS011;44475;53.206;-6.106;2022-12-07T05:09:08;2.28;;;1.52;;
58697;SDS011;44475;53.206;-6.106;2022-12-07T05:11:35;2.33;;;1.60;;
58697;SDS011;44475;53.206;-6.106;2022-12-07T05:16:40;3.75;;;1.60;;
58697;SDS011;44475;53.206;-6.106;2022-12-07T05:19:07;2.72;;;1.70;;
58697;SDS011;44475;53.206;-6.106;2022-12-07T05:21:37;2.30;;;1.60;;
58697;SDS011;44475;53.206;-6.106;2022-12-07T05:24:04;2.00;;;1.33;;
58697;SDS011;44475;53.206;-6.106;2022-12-07T05:26:51;2.13;;;1.50;;
58697;SDS011;44475;53.206;-6.106;2022-12-07T05:29:20;2.25;;;1.42;;
58697;SDS011;44475;53.206;-6.106;2022-12-07T05:31:47;3.28;;;1.70;;
58697;SDS011;44475;53.206;-6.106;2022-12-07T05:34:25;2.28;;;1.60;;
58697;SDS011;44475;53.206;-6.106;2022-12-07T05:36:53;1.90;;;1.50;;
58697;SDS011;44475;53.206;-6.106;2022-12-07T05:39:19;2.30;;;1.52;;
58697;SDS011;44475;53.206;-6.106;2022-12-07T05:41:45;2.90;;;1.50;;
58697;SDS011;44475;53.206;-6.106;2022-12-07T05:44:30;2.83;;;1.52;;
58697;SDS011;44475;53.206;-6.106;2022-12-07T05:46:56;2.38;;;1.50;;
58697;SDS011;44475;53.206;-6.106;2022-12-07T05:49:23;2.35;;;1.60;;
58697;SDS011;44475;53.206;-6.106;2022-12-07T05:51:49;2.50;;;1.50;;
58697;SDS011;44475;53.206;-6.106;2022-12-07T05:54:24;2.25;;;1.50;;
58697;SDS011;44475;53.206;-6.106;2022-12-07T05:56:51;2.00;;;1.50;;
58697;SDS011;44475;53.206;-6.106;2022-12-07T05:59:17;2.58;;;1.50;;
58697;SDS011;44475;53.206;-6.106;2022-12-07T06:02:09;2.15;;;1.50;;
58697;SDS011;44475;53.206;-6.106;2022-12-07T06:04:58;1.70;;;1.40;;
58697;SDS011;44475;53.206;-6.106;2022-12-07T06:07:27;2.38;;;1.50;;
58697;SDS011;44475;53.206;-6.106;2022-12-07T06:09:54;2.53;;;1.50;;
58697;SDS011;44475;53.206;-6.106;2022-12-07T06:12:21;1.75;;;1.40;;
58697;SDS011;44475;53.206;-6.106;2022-12-07T06:15:00;2.33;;;1.58;;
58697;SDS011;44475;53.206;-6.106;2022-12-07T06:17:27;1.83;;;1.40;;
58697;SDS011;44475;53.206;-6.106;2022-12-07T06:19:54;2.55;;;1.52;;
58697;SDS011;44475;53.206;-6.106;2022-12-07T06:22:20;2.53;;;1.70;;
58697;SDS011;44475;53.206;-6.106;2022-12-07T06:24:46;2.72;;;1.50;;
58697;SDS011;44475;53.206;-6.106;2022-12-07T06:27:13;2.20;;;1.50;;
58697;SDS011;44475;53.206;-6.106;2022-12-07T06:29:40;3.78;;;1.65;;
58697;SDS011;44475;53.206;-6.106;2022-12-07T06:32:09;2.78;;;1.50;;
58697;SDS011;44475;53.206;-6.106;2022-12-07T06:34:37;2.30;;;1.50;;
58697;SDS011;44475;53.206;-6.106;2022-12-07T06:37:12;2.30;;;1.50;;
58697;SDS011;44475;53.206;-6.106;2022-12-07T06:39:38;2.25;;;1.50;;
58697;SDS011;44475;53.206;-6.106;2022-12-07T06:42:06;1.92;;;1.50;;
58697;SDS011;44475;53.206;-6.106;2022-12-07T06:44:32;2.03;;;1.40;;
58697;SDS011;44475;53.206;-6.106;2022-12-07T06:46:59;3.70;;;1.50;;
58697;SDS011;44475;53.206;-6.106;2022-12-07T06:49:29;1.95;;;1.50;;
58697;SDS011;44475;53.206;-6.106;2022-12-07T06:51:57;2.13;;;1.55;;
58697;SDS011;44475;53.206;-6.106;2022-12-07T06:54:26;2.42;;;1.58;;
58697;SDS011;44475;53.206;-6.106;2022-12-07T06:56:55;2.15;;;1.60;;
58697;SDS011;44475;53.206;-6.106;2022-12-07T06:59:21;2.50;;;1.50;;
58697;SDS011;44475;53.206;-6.106;2022-12-07T07:01:48;2.45;;;1.52;;
58697;SDS011;44475;53.206;-6.106;2022-12-07T07:04:14;2.20;;;1.30;;
58697;SDS011;44475;53.206;-6.106;2022-12-07T07:06:44;2.38;;;1.50;;
58697;SDS011;44475;53.206;-6.106;2022-12-07T07:09:12;1.75;;;1.30;;
58697;SDS011;44475;53.206;-6.106;2022-12-07T07:11:38;2.33;;;1.50;;
58697;SDS011;44475;53.206;-6.106;2022-12-07T07:14:04;2.42;;;1.50;;
58697;SDS011;44475;53.206;-6.106;2022-12-07T07:16:31;2.85;;;1.63;;
58697;SDS011;44475;53.206;-6.106;2022-12-07T07:19:02;3.58;;;1.70;;
58697;SDS011;44475;53.206;-6.106;2022-12-07T07:21:30;2.33;;;1.50;;
58697;SDS011;44475;53.206;-6.106;2022-12-07T07:23:57;2.40;;;1.40;;
58697;SDS011;44475;53.206;-6.106;2022-12-07T07:26:28;2.28;;;1.40;;
58697;SDS011;44475;53.206;-6.106;2022-12-07T07:28:57;2.30;;;1.40;;
58697;SDS011;44475;53.206;-6.106;2022-12-07T07:31:25;2.90;;;1.58;;
58697;SDS011;44475;53.206;-6.106;2022-12-07T07:33:51;1.98;;;1.25;;
58697;SDS011;44475;53.206;-6.106;2022-12-07T07:36:21;2.10;;;1.45;;
58697;SDS011;44475;53.206;-6.106;2022-12-07T07:38:47;3.10;;;1.50;;
58697;SDS011;44475;53.206;-6.106;2022-12-07T07:41:13;3.70;;;1.52;;
58697;SDS011;44475;53.206;-6.106;2022-12-07T07:43:40;4.05;;;1.50;;
58697;SDS011;44475;53.206;-6.106;2022-12-07T07:46:09;5.00;;;1.50;;
58697;SDS011;44475;53.206;-6.106;2022-12-07T07:48:38;2.35;;;1.50;;
58697;SDS011;44475;53.206;-6.106;2022-12-07T07:51:06;3.72;;;1.42;;
58697;SDS011;44475;53.206;-6.106;2022-12-07T07:53:36;4.00;;;1.60;;
58697;SDS011;44475;53.206;-6.106;2022-12-07T07:56:04;2.60;;;1.60;;
58697;SDS011;44475;53.206;-6.106;2022-12-07T07:58:32;9.05;;;1.70;;
58697;SDS011;44475;53.206;-6.106;2022-12-07T08:01:03;5.70;;;1.60;;
58697;SDS011;44475;53.206;-6.106;2022-12-07T08:03:33;4.47;;;1.92;;
58697;SDS011;44475;53.206;-6.106;2022-12-07T08:06:01;6.93;;;1.70;;
58697;SDS011;44475;53.206;-6.106;2022-12-07T08:08:29;4.15;;;1.60;;
58697;SDS011;44475;53.206;-6.106;2022-12-07T08:10:55;3.38;;;1.77;;
58697;SDS011;44475;53.206;-6.106;2022-12-07T08:13:32;4.82;;;1.77;;
58697;SDS011;44475;53.206;-6.106;2022-12-07T08:16:08;3.50;;;1.80;;
58697;SDS011;44475;53.206;-6.106;2022-12-07T08:18:56;3.35;;;1.50;;
58697;SDS011;44475;53.206;-6.106;2022-12-07T08:21:23;5.15;;;1.60;;
58697;SDS011;44475;53.206;-6.106;2022-12-07T08:23:50;4.90;;;1.80;;
58697;SDS011;44475;53.206;-6.106;2022-12-07T08:26:16;3.70;;;1.70;;
58697;SDS011;44475;53.206;-6.106;2022-12-07T08:28:42;4.50;;;1.70;;
58697;SDS011;44475;53.206;-6.106;2022-12-07T08:31:14;2.67;;;1.60;;
58697;SDS011;44475;53.206;-6.106;2022-12-07T08:33:42;5.65;;;1.70;;
58697;SDS011;44475;53.206;-6.106;2022-12-07T08:36:11;7.15;;;2.05;;
58697;SDS011;44475;53.206;-6.106;2022-12-07T08:38:39;4.53;;;1.85;;
58697;SDS011;44475;53.206;-6.106;2022-12-07T08:41:08;5.97;;;1.92;;
58697;SDS011;44475;53.206;-6.106;2022-12-07T08:43:34;3.70;;;1.67;;
58697;SDS011;44475;53.206;-6.106;2022-12-07T08:46:04;6.80;;;1.60;;
58697;SDS011;44475;53.206;-6.106;2022-12-07T08:48:45;3.85;;;1.48;;
58697;SDS011;44475;53.206;-6.106;2022-12-07T08:51:32;3.95;;;1.58;;
58697;SDS011;44475;53.206;-6.106;2022-12-07T08:54:00;4.72;;;1.60;;
58697;SDS011;44475;53.206;-6.106;2022-12-07T08:56:34;3.40;;;1.42;;
58697;SDS011;44475;53.206;-6.106;2022-12-07T08:59:02;3.00;;;1.50;;
58697;SDS011;44475;53.206;-6.106;2022-12-07T09:01:30;5.57;;;1.70;;
58697;SDS011;44475;53.206;-6.106;2022-12-07T09:04:07;2.60;;;1.40;;
58697;SDS011;44475;53.206;-6.106;2022-12-07T09:06:40;4.93;;;1.52;;
58697;SDS011;44475;53.206;-6.106;2022-12-07T09:09:08;2.75;;;1.40;;
58697;SDS011;44475;53.206;-6.106;2022-12-07T09:11:44;5.95;;;1.60;;
58697;SDS011;44475;53.206;-6.106;2022-12-07T09:14:10;3.67;;;1.50;;
58697;SDS011;44475;53.206;-6.106;2022-12-07T09:16:37;2.83;;;1.58;;
58697;SDS011;44475;53.206;-6.106;2022-12-07T09:19:04;2.42;;;1.50;;
58697;SDS011;44475;53.206;-6.106;2022-12-07T09:21:30;3.92;;;1.50;;
58697;SDS011;44475;53.206;-6.106;2022-12-07T09:23:58;3.13;;;1.40;;
58697;SDS011;44475;53.206;-6.106;2022-12-07T09:26:24;2.60;;;1.45;;
58697;SDS011;44475;53.206;-6.106;2022-12-07T09:28:57;2.85;;;1.30;;
58697;SDS011;44475;53.206;-6.106;2022-12-07T09:31:24;1.95;;;1.40;;
58697;SDS011;44475;53.206;-6.106;2022-12-07T09:33:58;4.47;;;1.50;;
58697;SDS011;44475;53.206;-6.106;2022-12-07T09:36:26;2.25;;;1.40;;
58697;SDS011;44475;53.206;-6.106;2022-12-07T09:38:53;3.63;;;1.50;;
58697;SDS011;44475;53.206;-6.106;2022-12-07T09:41:19;2.60;;;1.45;;
58697;SDS011;44475;53.206;-6.106;2022-12-07T09:43:53;2.10;;;1.38;;
58697;SDS011;44475;53.206;-6.106;2022-12-07T09:46:38;2.05;;;1.45;;
58697;SDS011;44475;53.206;-6.106;2022-12-07T09:49:21;2.35;;;1.48;;
58697;SDS011;44475;53.206;-6.106;2022-12-07T09:52:00;1.55;;;1.40;;
58697;SDS011;44475;53.206;-6.106;2022-12-07T09:54:39;2.85;;;1.40;;
58697;SDS011;44475;53.206;-6.106;2022-12-07T09:57:10;2.65;;;1.55;;
58697;SDS011;44475;53.206;-6.106;2022-12-07T09:59:40;1.83;;;1.30;;
58697;SDS011;44475;53.206;-6.106;2022-12-07T10:02:19;2.67;;;1.40;;
58697;SDS011;44475;53.206;-6.106;2022-12-07T10:04:54;3.20;;;1.40;;
58697;SDS011;44475;53.206;-6.106;2022-12-07T10:07:32;1.98;;;1.40;;
58697;SDS011;44475;53.206;-6.106;2022-12-07T10:10:03;2.33;;;1.50;;
58697;SDS011;44475;53.206;-6.106;2022-12-07T10:12:59;3.17;;;1.50;;
58697;SDS011;44475;53.206;-6.106;2022-12-07T10:15:56;1.40;;;1.30;;
58697;SDS011;44475;53.206;-6.106;2022-12-07T10:18:34;1.90;;;1.30;;
58697;SDS011;44475;53.206;-6.106;2022-12-07T10:21:20;2.13;;;1.33;;
58697;SDS011;44475;53.206;-6.106;2022-12-07T10:26:38;2.63;;;1.50;;
58697;SDS011;44475;53.206;-6.106;2022-12-07T10:31:56;2.42;;;1.35;;
58697;SDS011;44475;53.206;-6.106;2022-12-07T10:34:41;1.75;;;1.30;;
58697;SDS011;44475;53.206;-6.106;2022-12-07T10:37:19;2.95;;;1.42;;
58697;SDS011;44475;53.206;-6.106;2022-12-07T10:39:50;1.73;;;1.30;;
58697;SDS011;44475;53.206;-6.106;2022-12-07T10:46:10;2.50;;;1.50;;
58697;SDS011;44475;53.206;-6.106;2022-12-07T10:51:46;1.92;;;1.30;;
58697;SDS011;44475;53.206;-6.106;2022-12-07T10:55:33;2.47;;;1.60;;
58697;SDS011;44475;53.206;-6.106;2022-12-07T10:58:03;2.28;;;1.30;;
58697;SDS011;44475;53.206;-6.106;2022-12-07T11:00:56;1.63;;;1.30;;
58697;SDS011;44475;53.206;-6.106;2022-12-07T11:06:43;1.48;;;1.30;;
58697;SDS011;44475;53.206;-6.106;2022-12-07T11:23:52;1.20;;;1.10;;
58697;SDS011;44475;53.206;-6.106;2022-12-07T11:32:39;7.05;;;1.20;;
58697;SDS011;44475;53.206;-6.106;2022-12-07T11:35:20;1.80;;;1.40;;
58697;SDS011;44475;53.206;-6.106;2022-12-07T11:37:59;1.33;;;1.23;;
58697;SDS011;44475;53.206;-6.106;2022-12-07T11:40:56;1.35;;;1.20;;
58697;SDS011;44475;53.206;-6.106;2022-12-07T11:46:25;2.08;;;1.27;;
58697;SDS011;44475;53.206;-6.106;2022-12-07T11:49:27;3.15;;;1.30;;
58697;SDS011;44475;53.206;-6.106;2022-12-07T11:52:32;1.42;;;1.10;;
58697;SDS011;44475;53.206;-6.106;2022-12-07T12:01:26;2.28;;;1.38;;
58697;SDS011;44475;53.206;-6.106;2022-12-07T12:06:53;1.58;;;1.20;;
58697;SDS011;44475;53.206;-6.106;2022-12-07T12:09:36;1.40;;;1.30;;
58697;SDS011;44475;53.206;-6.106;2022-12-07T12:15:37;1.30;;;1.20;;
58697;SDS011;44475;53.206;-6.106;2022-12-07T12:21:19;2.45;;;1.20;;
58697;SDS011;44475;53.206;-6.106;2022-12-07T12:24:06;1.85;;;1.30;;
58697;SDS011;44475;53.206;-6.106;2022-12-07T12:27:03;2.00;;;1.30;;
58697;SDS011;44475;53.206;-6.106;2022-12-07T12:29:41;1.80;;;1.30;;
58697;SDS011;44475;53.206;-6.106;2022-12-07T12:32:38;1.17;;;1.10;;
58697;SDS011;44475;53.206;-6.106;2022-12-07T12:37:53;1.45;;;1.20;;
58697;SDS011;44475;53.206;-6.106;2022-12-07T12:40:54;2.30;;;1.30;;
58697;SDS011;44475;53.206;-6.106;2022-12-07T12:55:13;3.53;;;1.30;;
58697;SDS011;44475;53.206;-6.106;2022-12-07T13:00:44;1.35;;;1.13;;
58697;SDS011;44475;53.206;-6.106;2022-12-07T13:03:29;2.47;;;1.33;;
58697;SDS011;44475;53.206;-6.106;2022-12-07T13:06:18;1.45;;;1.20;;
58697;SDS011;44475;53.206;-6.106;2022-12-07T13:09:22;3.75;;;1.13;;
58697;SDS011;44475;53.206;-6.106;2022-12-07T13:12:28;5.88;;;1.55;;
58697;SDS011;44475;53.206;-6.106;2022-12-07T13:15:27;6.13;;;1.60;;
58697;SDS011;44475;53.206;-6.106;2022-12-07T13:29:13;4.10;;;1.30;;
58697;SDS011;44475;53.206;-6.106;2022-12-07T13:31:55;3.22;;;1.40;;
58697;SDS011;44475;53.206;-6.106;2022-12-07T13:34:40;9.07;;;1.30;;
58697;SDS011;44475;53.206;-6.106;2022-12-07T13:39:57;5.03;;;1.25;;
58697;SDS011;44475;53.206;-6.106;2022-12-07T13:42:33;2.88;;;1.40;;
58697;SDS011;44475;53.206;-6.106;2022-12-07T13:48:31;3.13;;;1.10;;
58697;SDS011;44475;53.206;-6.106;2022-12-07T13:50:59;3.75;;;1.23;;
58697;SDS011;44475;53.206;-6.106;2022-12-07T13:53:47;2.30;;;1.20;;
58697;SDS011;44475;53.206;-6.106;2022-12-07T13:59:36;6.65;;;1.50;;
58697;SDS011;44475;53.206;-6.106;2022-12-07T14:02:17;10.63;;;1.55;;
58697;SDS011;44475;53.206;-6.106;2022-12-07T14:07:27;8.57;;;1.50;;
58697;SDS011;44475;53.206;-6.106;2022-12-07T14:09:55;6.88;;;1.60;;
58697;SDS011;44475;53.206;-6.106;2022-12-07T14:12:31;2.97;;;1.60;;
58697;SDS011;44475;53.206;-6.106;2022-12-07T14:15:23;6.07;;;1.67;;
58697;SDS011;44475;53.206;-6.106;2022-12-07T14:17:53;6.93;;;1.63;;
58697;SDS011;44475;53.206;-6.106;2022-12-07T14:20:30;8.60;;;1.63;;
58697;SDS011;44475;53.206;-6.106;2022-12-07T14:23:25;2.92;;;1.38;;
58697;SDS011;44475;53.206;-6.106;2022-12-07T14:25:53;3.80;;;1.30;;
58697;SDS011;44475;53.206;-6.106;2022-12-07T14:28:31;4.70;;;1.40;;
58697;SDS011;44475;53.206;-6.106;2022-12-07T14:31:18;4.80;;;1.50;;
58697;SDS011;44475;53.206;-6.106;2022-12-07T14:34:09;4.53;;;1.38;;
58697;SDS011;44475;53.206;-6.106;2022-12-07T14:36:38;2.92;;;1.40;;
58697;SDS011;44475;53.206;-6.106;2022-12-07T14:39:06;4.65;;;1.50;;
58697;SDS011;44475;53.206;-6.106;2022-12-07T14:41:32;4.10;;;1.50;;
58697;SDS011;44475;53.206;-6.106;2022-12-07T14:44:19;4.28;;;1.38;;
58697;SDS011;44475;53.206;-6.106;2022-12-07T14:47:10;4.43;;;1.45;;
58697;SDS011;44475;53.206;-6.106;2022-12-07T14:49:46;3.50;;;1.33;;
58697;SDS011;44475;53.206;-6.106;2022-12-07T14:52:18;2.70;;;1.48;;
58697;SDS011;44475;53.206;-6.106;2022-12-07T14:54:55;3.33;;;1.40;;
58697;SDS011;44475;53.206;-6.106;2022-12-07T14:57:28;2.42;;;1.40;;
58697;SDS011;44475;53.206;-6.106;2022-12-07T14:59:54;3.38;;;1.40;;
58697;SDS011;44475;53.206;-6.106;2022-12-07T15:02:36;2.45;;;1.45;;
58697;SDS011;44475;53.206;-6.106;2022-12-07T15:05:02;2.10;;;1.40;;
58697;SDS011;44475;53.206;-6.106;2022-12-07T15:07:32;4.63;;;1.40;;
58697;SDS011;44475;53.206;-6.106;2022-12-07T15:09:58;2.00;;;1.50;;
58697;SDS011;44475;53.206;-6.106;2022-12-07T15:12:26;6.28;;;1.75;;
58697;SDS011;44475;53.206;-6.106;2022-12-07T15:14:52;6.07;;;1.67;;
58697;SDS011;44475;53.206;-6.106;2022-12-07T15:17:18;6.72;;;1.77;;
58697;SDS011;44475;53.206;-6.106;2022-12-07T15:19:45;4.10;;;1.60;;
58697;SDS011;44475;53.206;-6.106;2022-12-07T15:22:11;7.22;;;1.50;;
58697;SDS011;44475;53.206;-6.106;2022-12-07T15:24:37;3.17;;;1.75;;
58697;SDS011;44475;53.206;-6.106;2022-12-07T15:27:07;4.35;;;1.42;;
58697;SDS011;44475;53.206;-6.106;2022-12-07T15:29:35;4.35;;;1.52;;
58697;SDS011;44475;53.206;-6.106;2022-12-07T15:32:05;3.53;;;1.60;;
58697;SDS011;44475;53.206;-6.106;2022-12-07T15:34:32;3.60;;;1.60;;
58697;SDS011;44475;53.206;-6.106;2022-12-07T15:36:58;4.78;;;1.70;;
58697;SDS011;44475;53.206;-6.106;2022-12-07T15:39:24;3.42;;;1.60;;
58697;SDS011;44475;53.206;-6.106;2022-12-07T15:41:51;4.35;;;1.60;;
58697;SDS011;44475;53.206;-6.106;2022-12-07T15:44:17;2.28;;;1.45;;
58697;SDS011;44475;53.206;-6.106;2022-12-07T15:47:05;3.67;;;1.70;;
58697;SDS011;44475;53.206;-6.106;2022-12-07T15:49:31;2.25;;;1.48;;
58697;SDS011;44475;53.206;-6.106;2022-12-07T15:51:58;2.08;;;1.50;;
58697;SDS011;44475;53.206;-6.106;2022-12-07T15:54:29;5.00;;;1.60;;
58697;SDS011;44475;53.206;-6.106;2022-12-07T15:57:06;5.20;;;1.65;;
58697;SDS011;44475;53.206;-6.106;2022-12-07T15:59:34;2.95;;;1.63;;
58697;SDS011;44475;53.206;-6.106;2022-12-07T16:02:00;6.63;;;1.50;;
58697;SDS011;44475;53.206;-6.106;2022-12-07T16:04:27;7.20;;;1.80;;
58697;SDS011;44475;53.206;-6.106;2022-12-07T16:06:54;5.72;;;1.65;;
58697;SDS011;44475;53.206;-6.106;2022-12-07T16:09:21;2.95;;;1.60;;
58697;SDS011;44475;53.206;-6.106;2022-12-07T16:11:48;4.15;;;1.85;;
58697;SDS011;44475;53.206;-6.106;2022-12-07T16:14:16;2.88;;;1.60;;
58697;SDS011;44475;53.206;-6.106;2022-12-07T16:16:42;4.10;;;1.60;;
58697;SDS011;44475;53.206;-6.106;2022-12-07T16:19:09;4.00;;;1.60;;
58697;SDS011;44475;53.206;-6.106;2022-12-07T16:21:37;4.45;;;1.80;;
58697;SDS011;44475;53.206;-6.106;2022-12-07T16:24:03;5.68;;;1.80;;
58697;SDS011;44475;53.206;-6.106;2022-12-07T16:26:31;3.72;;;1.70;;
58697;SDS011;44475;53.206;-6.106;2022-12-07T16:28:57;6.22;;;1.70;;
58697;SDS011;44475;53.206;-6.106;2022-12-07T16:31:25;5.53;;;2.00;;
58697;SDS011;44475;53.206;-6.106;2022-12-07T16:33:53;4.03;;;1.65;;
58697;SDS011;44475;53.206;-6.106;2022-12-07T16:36:42;5.32;;;1.80;;
58697;SDS011;44475;53.206;-6.106;2022-12-07T16:39:09;5.28;;;1.80;;
58697;SDS011;44475;53.206;-6.106;2022-12-07T16:41:41;3.40;;;1.70;;
58697;SDS011;44475;53.206;-6.106;2022-12-07T16:44:09;5.72;;;1.80;;
58697;SDS011;44475;53.206;-6.106;2022-12-07T16:46:39;4.03;;;1.95;;
58697;SDS011;44475;53.206;-6.106;2022-12-07T16:49:19;6.95;;;1.90;;
58697;SDS011;44475;53.206;-6.106;2022-12-07T16:51:50;4.00;;;1.85;;
58697;SDS011;44475;53.206;-6.106;2022-12-07T16:54:37;3.10;;;1.70;;
58697;SDS011;44475;53.206;-6.106;2022-12-07T16:57:04;4.70;;;1.98;;
58697;SDS011;44475;53.206;-6.106;2022-12-07T16:59:36;6.60;;;1.88;;
58697;SDS011;44475;53.206;-6.106;2022-12-07T17:02:11;5.30;;;2.10;;
58697;SDS011;44475;53.206;-6.106;2022-12-07T17:04:38;4.88;;;1.83;;
58697;SDS011;44475;53.206;-6.106;2022-12-07T17:07:05;3.67;;;1.73;;
58697;SDS011;44475;53.206;-6.106;2022-12-07T17:09:31;4.47;;;1.70;;
58697;SDS011;44475;53.206;-6.106;2022-12-07T17:11:57;4.63;;;1.92;;
58697;SDS011;44475;53.206;-6.106;2022-12-07T17:14:24;7.97;;;1.95;;
58697;SDS011;44475;53.206;-6.106;2022-12-07T17:17:08;5.50;;;1.88;;
58697;SDS011;44475;53.206;-6.106;2022-12-07T17:19:35;7.13;;;2.08;;